Time;durP1;ratioP1;P1;durP2;ratioP2;P2;SDS_P1;SDS_P2;PMS_P1;PMS_P2;Temp;Humidity;BMP_temperature;BMP_pressure;BME280_temperature;BME280_humidity;BME280_pressure;Samples;Min_cycle;Max_cycle;Signal;HPM_P1;HPM_P2
2023/02/15 00:00:19;;;;;;;5.10;4.60;;;;;;;;;;4992805;28;20669;-68
2023/02/15 00:02:45;;;;;;;5.68;4.68;;;;;;;;;;4987435;28;20422;-67
2023/02/15 00:05:10;;;;;;;5.55;4.70;;;;;;;;;;4969904;28;20043;-65
2023/02/15 00:07:35;;;;;;;5.10;4.60;;;;;;;;;;4987729;28;20038;-64
2023/02/15 00:10:00;;;;;;;5.30;4.60;;;;;;;;;;4986345;28;20277;-68
2023/02/15 00:12:26;;;;;;;5.23;4.60;;;;;;;;;;4987320;28;20068;-68
2023/02/15 00:14:51;;;;;;;6.27;5.23;;;;;;;;;;4986902;28;20304;-66
2023/02/15 00:17:16;;;;;;;5.23;4.40;;;;;;;;;;4985362;28;20289;-66
2023/02/15 00:19:41;;;;;;;5.43;4.83;;;;;;;;;;4980275;28;20772;-66
2023/02/15 00:22:06;;;;;;;5.73;4.83;;;;;;;;;;4987290;28;20479;-70
2023/02/15 00:24:32;;;;;;;5.57;4.70;;;;;;;;;;4988398;28;20794;-66
2023/02/15 00:26:57;;;;;;;5.78;4.93;;;;;;;;;;4997716;28;20308;-65
2023/02/15 00:29:22;;;;;;;5.60;4.70;;;;;;;;;;4987089;28;20030;-66
2023/02/15 00:31:48;;;;;;;5.78;4.97;;;;;;;;;;4987542;28;20635;-65
2023/02/15 00:34:17;;;;;;;5.72;5.10;;;;;;;;;;4992868;28;20066;-66
2023/02/15 00:36:42;;;;;;;6.22;5.38;;;;;;;;;;4970171;28;20046;-67
2023/02/15 00:39:08;;;;;;;6.05;4.93;;;;;;;;;;4973120;28;20422;-67
2023/02/15 00:41:33;;;;;;;5.60;5.00;;;;;;;;;;4990621;28;20026;-66
2023/02/15 00:43:58;;;;;;;6.13;5.10;;;;;;;;;;4990727;28;20034;-67
2023/02/15 00:46:24;;;;;;;6.22;5.13;;;;;;;;;;4991178;28;20265;-66
2023/02/15 00:48:49;;;;;;;6.83;5.47;;;;;;;;;;4990937;28;20053;-68
2023/02/15 00:51:14;;;;;;;6.03;5.07;;;;;;;;;;4998056;28;20401;-67
2023/02/15 00:53:39;;;;;;;6.97;5.53;;;;;;;;;;4971343;28;20046;-67
2023/02/15 00:56:05;;;;;;;5.77;5.07;;;;;;;;;;4991461;28;20039;-68
2023/02/15 00:58:30;;;;;;;6.57;5.30;;;;;;;;;;5004401;28;20355;-66
2023/02/15 01:00:58;;;;;;;6.57;5.43;;;;;;;;;;4973067;28;20504;-66
2023/02/15 01:03:23;;;;;;;5.90;5.07;;;;;;;;;;4987906;28;20744;-65
2023/02/15 01:05:49;;;;;;;6.03;5.27;;;;;;;;;;4990446;28;20050;-66
2023/02/15 01:08:14;;;;;;;6.82;5.15;;;;;;;;;;4991816;28;20810;-67
2023/02/15 01:10:40;;;;;;;6.30;5.47;;;;;;;;;;4991423;28;20049;-68
2023/02/15 01:13:05;;;;;;;6.50;5.30;;;;;;;;;;4991170;28;20125;-67
2023/02/15 01:15:31;;;;;;;5.83;5.07;;;;;;;;;;4988029;28;20425;-64
2023/02/15 01:17:56;;;;;;;5.80;5.20;;;;;;;;;;4986077;28;20336;-65
2023/02/15 01:20:25;;;;;;;6.35;5.30;;;;;;;;;;4986719;28;20281;-65
2023/02/15 01:22:50;;;;;;;6.10;5.35;;;;;;;;;;4970314;28;20038;-67
2023/02/15 01:25:18;;;;;;;6.15;5.30;;;;;;;;;;4989869;28;20042;-66
2023/02/15 01:27:44;;;;;;;6.30;5.25;;;;;;;;;;4971970;28;20043;-67
2023/02/15 01:30:10;;;;;;;6.30;5.57;;;;;;;;;;4989805;28;20105;-64
2023/02/15 01:32:35;;;;;;;6.32;5.45;;;;;;;;;;4985913;28;20046;-67
2023/02/15 01:35:00;;;;;;;6.57;5.88;;;;;;;;;;4984879;28;20039;-66
2023/02/15 01:37:25;;;;;;;6.93;5.97;;;;;;;;;;4982652;28;20057;-67
2023/02/15 01:39:51;;;;;;;6.20;5.60;;;;;;;;;;4982417;28;20743;-66
2023/02/15 01:42:21;;;;;;;6.10;5.50;;;;;;;;;;5002716;28;20432;-66
2023/02/15 01:44:46;;;;;;;6.95;5.38;;;;;;;;;;4979971;28;20282;-66
2023/02/15 01:47:15;;;;;;;6.50;5.60;;;;;;;;;;4984963;28;20025;-65
2023/02/15 01:49:43;;;;;;;6.07;5.47;;;;;;;;;;4989818;28;20049;-67
2023/02/15 01:52:09;;;;;;;6.32;5.40;;;;;;;;;;4984515;28;20073;-64
2023/02/15 01:54:36;;;;;;;6.70;5.85;;;;;;;;;;4981866;28;20043;-68
2023/02/15 01:57:09;;;;;;;6.22;5.35;;;;;;;;;;4988431;28;20065;-67
2023/02/15 01:59:34;;;;;;;6.90;5.88;;;;;;;;;;4993737;28;20044;-67
2023/02/15 02:01:59;;;;;;;6.43;5.43;;;;;;;;;;4988084;28;20568;-67
2023/02/15 02:04:26;;;;;;;6.55;5.50;;;;;;;;;;4992566;28;20025;-67
2023/02/15 02:06:52;;;;;;;6.50;5.78;;;;;;;;;;4987863;28;20037;-67
2023/02/15 02:09:17;;;;;;;7.40;5.73;;;;;;;;;;4987807;28;20113;-66
2023/02/15 02:11:42;;;;;;;6.37;5.47;;;;;;;;;;4987598;28;20312;-67
2023/02/15 02:14:08;;;;;;;6.28;5.60;;;;;;;;;;4988008;28;20348;-69
2023/02/15 02:16:39;;;;;;;6.53;5.72;;;;;;;;;;5001510;28;20527;-68
2023/02/15 02:19:19;;;;;;;6.38;5.75;;;;;;;;;;4984715;28;20082;-67
2023/02/15 02:21:48;;;;;;;7.68;5.90;;;;;;;;;;4983081;28;20052;-67
2023/02/15 02:24:28;;;;;;;6.50;5.50;;;;;;;;;;4986725;28;20022;-66
2023/02/15 02:27:23;;;;;;;7.63;6.05;;;;;;;;;;4988770;28;20042;-68
2023/02/15 02:29:54;;;;;;;6.82;5.82;;;;;;;;;;4917860;28;20036;-67
2023/02/15 02:32:42;;;;;;;6.75;6.05;;;;;;;;;;4986908;28;20090;-68
2023/02/15 02:35:12;;;;;;;7.53;5.85;;;;;;;;;;4961052;28;20423;-67
2023/02/15 02:37:43;;;;;;;6.32;5.47;;;;;;;;;;4974357;28;20049;-66
2023/02/15 02:40:12;;;;;;;6.43;5.75;;;;;;;;;;4965668;28;20045;-68
2023/02/15 02:42:40;;;;;;;7.70;6.43;;;;;;;;;;4988546;28;20572;-66
2023/02/15 02:45:05;;;;;;;6.88;5.72;;;;;;;;;;4986561;28;20047;-67
2023/02/15 02:47:36;;;;;;;7.07;6.30;;;;;;;;;;4987095;28;20488;-66
2023/02/15 02:50:03;;;;;;;7.20;6.13;;;;;;;;;;4982556;28;20057;-65
2023/02/15 02:52:34;;;;;;;6.68;5.57;;;;;;;;;;4967257;28;20090;-64
2023/02/15 02:55:00;;;;;;;7.60;6.28;;;;;;;;;;4984318;28;20558;-67
2023/02/15 02:57:25;;;;;;;6.32;5.60;;;;;;;;;;4987283;28;20114;-68
2023/02/15 02:59:50;;;;;;;6.53;5.83;;;;;;;;;;4969885;28;20125;-64
2023/02/15 03:02:23;;;;;;;7.13;6.10;;;;;;;;;;4971086;28;20836;-67
2023/02/15 03:04:49;;;;;;;6.22;5.55;;;;;;;;;;4986433;28;20328;-63
2023/02/15 03:07:15;;;;;;;7.95;6.10;;;;;;;;;;4987829;28;20046;-64
2023/02/15 03:09:45;;;;;;;7.88;6.18;;;;;;;;;;4964539;28;20038;-66
2023/02/15 03:12:11;;;;;;;6.95;5.93;;;;;;;;;;4980983;28;20104;-67
2023/02/15 03:14:36;;;;;;;6.47;5.45;;;;;;;;;;4970477;28;20170;-64
2023/02/15 03:17:01;;;;;;;6.70;5.75;;;;;;;;;;4986177;28;22083;-68
2023/02/15 03:19:27;;;;;;;7.00;5.90;;;;;;;;;;4982722;28;20070;-63
2023/02/15 03:21:57;;;;;;;6.50;5.80;;;;;;;;;;4986787;28;20285;-69
2023/02/15 03:24:23;;;;;;;6.93;6.22;;;;;;;;;;4985988;28;20086;-68
2023/02/15 03:26:50;;;;;;;7.82;6.40;;;;;;;;;;4965871;28;20054;-68
2023/02/15 03:29:16;;;;;;;7.75;6.13;;;;;;;;;;4984758;28;20125;-66
2023/02/15 03:31:42;;;;;;;6.78;6.07;;;;;;;;;;4979039;28;20137;-66
2023/02/15 03:34:08;;;;;;;6.95;6.10;;;;;;;;;;4957309;28;20038;-66
2023/02/15 03:36:48;;;;;;;6.78;5.80;;;;;;;;;;4982193;28;20069;-68
2023/02/15 03:39:18;;;;;;;7.22;5.78;;;;;;;;;;4983297;28;20148;-68
2023/02/15 03:41:48;;;;;;;7.20;6.20;;;;;;;;;;4982831;28;20043;-66
2023/02/15 03:44:14;;;;;;;;;;;;;;;;;;4998752;28;20038;-67
2023/02/15 03:46:39;;;;;;;6.87;5.93;;;;;;;;;;4969462;28;19965;-67
2023/02/15 03:49:08;;;;;;;6.85;6.15;;;;;;;;;;4989706;28;20077;-66
2023/02/15 03:51:35;;;;;;;8.57;6.53;;;;;;;;;;4971178;28;20072;-65
2023/02/15 03:54:05;;;;;;;6.95;6.07;;;;;;;;;;4977067;28;20242;-66
2023/02/15 03:56:30;;;;;;;7.25;6.38;;;;;;;;;;4977389;28;20069;-63
2023/02/15 04:01:58;;;;;;;7.60;6.22;;;;;;;;;;4991887;28;20041;-69
2023/02/15 04:04:31;;;;;;;7.18;6.22;;;;;;;;;;4991439;28;20042;-68
2023/02/15 04:06:56;;;;;;;7.55;6.60;;;;;;;;;;4971527;28;20050;-69
2023/02/15 04:12:05;;;;;;;7.30;5.70;;;;;;;;;;4991650;28;20304;-66
2023/02/15 04:17:15;;;;;;;7.50;6.43;;;;;;;;;;4999274;28;20089;-67
2023/02/15 04:25:11;;;;;;;7.88;5.85;;;;;;;;;;4988362;28;20423;-63
2023/02/15 04:27:36;;;;;;;6.97;5.82;;;;;;;;;;4982242;28;20349;-63
2023/02/15 04:30:02;;;;;;;6.97;5.93;;;;;;;;;;4972700;28;20034;-62
2023/02/15 04:32:27;;;;;;;6.40;5.78;;;;;;;;;;4991028;28;20532;-62
2023/02/15 04:34:52;;;;;;;7.80;6.37;;;;;;;;;;4989206;28;20042;-66
2023/02/15 04:37:18;;;;;;;6.50;5.90;;;;;;;;;;4990511;28;20057;-64
2023/02/15 04:39:43;;;;;;;6.88;6.13;;;;;;;;;;4989246;28;20046;-62
2023/02/15 04:42:08;;;;;;;6.10;5.50;;;;;;;;;;4989642;28;20048;-64
2023/02/15 04:44:33;;;;;;;6.30;5.70;;;;;;;;;;4988415;28;20432;-60
2023/02/15 04:46:58;;;;;;;6.63;5.93;;;;;;;;;;4990906;28;20062;-63
2023/02/15 04:49:24;;;;;;;6.13;5.53;;;;;;;;;;4989529;28;20022;-66
2023/02/15 04:51:49;;;;;;;6.67;5.57;;;;;;;;;;4989885;28;20336;-68
2023/02/15 04:54:14;;;;;;;6.13;5.43;;;;;;;;;;4991235;28;21051;-63
2023/02/15 04:56:39;;;;;;;6.60;5.90;;;;;;;;;;4990921;28;20816;-68
2023/02/15 04:59:05;;;;;;;6.13;5.50;;;;;;;;;;4989216;28;20285;-67
2023/02/15 05:01:30;;;;;;;6.32;5.65;;;;;;;;;;4966544;28;20290;-68
2023/02/15 05:03:55;;;;;;;5.90;5.30;;;;;;;;;;4989612;28;20122;-66
2023/02/15 05:06:21;;;;;;;6.30;5.53;;;;;;;;;;4970194;28;20509;-66
2023/02/15 05:08:46;;;;;;;6.57;5.80;;;;;;;;;;4989879;28;20678;-68
2023/02/15 05:11:11;;;;;;;6.37;5.40;;;;;;;;;;4991930;28;20316;-66
2023/02/15 05:13:36;;;;;;;6.00;5.30;;;;;;;;;;4973863;28;20053;-67
2023/02/15 05:16:02;;;;;;;6.37;5.73;;;;;;;;;;4950506;28;20297;-69
2023/02/15 05:18:27;;;;;;;6.00;5.33;;;;;;;;;;4990107;28;20305;-67
2023/02/15 05:20:52;;;;;;;6.13;5.53;;;;;;;;;;4982443;28;20514;-65
2023/02/15 05:23:17;;;;;;;6.37;5.77;;;;;;;;;;4988467;28;20509;-65
2023/02/15 05:28:30;;;;;;;6.03;5.43;;;;;;;;;;4988291;28;20280;-68
2023/02/15 05:31:14;;;;;;;6.47;5.60;;;;;;;;;;4980947;28;20113;-68
2023/02/15 05:33:39;;;;;;;7.25;5.80;;;;;;;;;;4972657;28;20385;-67
2023/02/15 05:36:04;;;;;;;6.17;5.57;;;;;;;;;;4986506;28;20117;-66
2023/02/15 05:38:30;;;;;;;5.95;5.35;;;;;;;;;;4985459;28;20856;-67
2023/02/15 05:40:55;;;;;;;6.55;5.30;;;;;;;;;;4988747;28;20039;-70
2023/02/15 05:43:20;;;;;;;5.37;4.73;;;;;;;;;;4990203;28;20379;-68
2023/02/15 05:45:46;;;;;;;6.00;5.40;;;;;;;;;;4984794;28;20274;-66
2023/02/15 05:48:11;;;;;;;5.90;5.30;;;;;;;;;;4986260;28;20614;-72
2023/02/15 05:50:37;;;;;;;5.63;4.83;;;;;;;;;;4970042;28;20109;-66
2023/02/15 05:53:02;;;;;;;5.80;5.20;;;;;;;;;;4988855;28;20084;-64
2023/02/15 05:55:27;;;;;;;6.17;5.37;;;;;;;;;;4985419;28;20277;-70
2023/02/15 05:57:52;;;;;;;5.70;5.10;;;;;;;;;;4953118;28;20606;-68
2023/02/15 06:00:18;;;;;;;5.90;5.27;;;;;;;;;;4991411;28;20397;-65
2023/02/15 06:02:43;;;;;;;6.32;5.43;;;;;;;;;;4955655;28;20113;-66
2023/02/15 06:05:08;;;;;;;5.33;4.83;;;;;;;;;;4988531;28;20034;-62
2023/02/15 06:07:33;;;;;;;5.88;5.18;;;;;;;;;;4987294;28;20571;-64
2023/02/15 06:09:58;;;;;;;5.72;5.03;;;;;;;;;;4985393;28;20061;-66
2023/02/15 06:12:24;;;;;;;5.70;5.00;;;;;;;;;;4971736;28;20119;-68
2023/02/15 06:14:49;;;;;;;5.88;4.78;;;;;;;;;;4988503;28;20798;-69
2023/02/15 06:17:16;;;;;;;6.43;5.55;;;;;;;;;;4987720;28;20076;-66
2023/02/15 06:19:41;;;;;;;6.38;5.50;;;;;;;;;;4969024;28;20042;-66
2023/02/15 06:22:06;;;;;;;6.13;5.30;;;;;;;;;;4989733;28;20022;-65
2023/02/15 06:24:32;;;;;;;5.63;5.03;;;;;;;;;;4987277;28;20077;-65
2023/02/15 06:26:57;;;;;;;5.82;5.00;;;;;;;;;;4987212;28;20796;-67
2023/02/15 06:29:22;;;;;;;6.60;5.17;;;;;;;;;;4987572;28;20039;-65
2023/02/15 06:31:47;;;;;;;7.83;5.30;;;;;;;;;;4981786;28;20809;-67
2023/02/15 06:34:13;;;;;;;8.10;5.27;;;;;;;;;;4987247;28;20048;-67
2023/02/15 06:36:38;;;;;;;11.02;5.38;;;;;;;;;;4981909;28;20034;-67
2023/02/15 06:39:03;;;;;;;6.93;4.93;;;;;;;;;;4984820;28;20439;-62
2023/02/15 06:41:29;;;;;;;8.43;5.40;;;;;;;;;;4997104;28;20805;-71
2023/02/15 06:43:54;;;;;;;9.10;5.77;;;;;;;;;;4988257;28;20038;-67
2023/02/15 06:46:19;;;;;;;6.65;5.38;;;;;;;;;;4985194;28;20376;-70
2023/02/15 06:48:44;;;;;;;11.57;5.30;;;;;;;;;;4987078;28;20514;-64
2023/02/15 06:51:10;;;;;;;7.37;4.50;;;;;;;;;;4986917;28;20489;-66
2023/02/15 06:53:35;;;;;;;7.17;5.10;;;;;;;;;;4989065;28;20661;-69
2023/02/15 06:56:06;;;;;;;7.38;5.28;;;;;;;;;;4988374;28;20046;-66
2023/02/15 06:58:31;;;;;;;8.57;5.22;;;;;;;;;;4971076;28;20046;-69
2023/02/15 07:00:57;;;;;;;6.00;5.20;;;;;;;;;;4987955;28;20105;-69
2023/02/15 07:03:22;;;;;;;6.97;5.10;;;;;;;;;;4968224;28;20035;-68
2023/02/15 07:05:48;;;;;;;7.37;4.93;;;;;;;;;;4987982;28;20065;-68
2023/02/15 07:08:13;;;;;;;6.38;5.50;;;;;;;;;;4985457;28;20517;-62
2023/02/15 07:10:39;;;;;;;6.45;4.80;;;;;;;;;;4988115;28;20042;-70
2023/02/15 07:13:04;;;;;;;7.07;5.37;;;;;;;;;;4984431;28;20129;-70
2023/02/15 07:15:29;;;;;;;5.80;5.13;;;;;;;;;;4981869;28;20077;-65
2023/02/15 07:17:54;;;;;;;7.15;5.07;;;;;;;;;;4985630;28;20289;-68
2023/02/15 07:20:20;;;;;;;5.47;4.97;;;;;;;;;;4984962;28;20042;-68
2023/02/15 07:22:45;;;;;;;6.70;4.88;;;;;;;;;;4987355;28;20034;-67
2023/02/15 07:25:11;;;;;;;5.90;4.90;;;;;;;;;;4985884;28;20077;-68
2023/02/15 07:27:36;;;;;;;6.85;5.07;;;;;;;;;;4969922;28;20038;-65
2023/02/15 07:30:01;;;;;;;6.70;5.50;;;;;;;;;;4985307;28;20031;-64
2023/02/15 07:32:28;;;;;;;6.05;4.90;;;;;;;;;;4985540;28;20677;-66
2023/02/15 07:34:53;;;;;;;6.13;5.07;;;;;;;;;;4953086;28;20047;-68
2023/02/15 07:37:18;;;;;;;7.43;5.30;;;;;;;;;;4967652;28;20054;-72
2023/02/15 07:39:43;;;;;;;6.93;5.50;;;;;;;;;;4969750;28;20397;-68
2023/02/15 07:42:09;;;;;;;5.03;4.53;;;;;;;;;;4986735;28;20297;-65
2023/02/15 07:44:34;;;;;;;6.37;5.23;;;;;;;;;;4954089;28;20719;-68
2023/02/15 07:46:59;;;;;;;6.97;5.37;;;;;;;;;;4979673;28;20366;-66
2023/02/15 07:49:24;;;;;;;6.18;4.68;;;;;;;;;;4966145;28;20570;-65
2023/02/15 07:51:50;;;;;;;6.37;5.23;;;;;;;;;;4970757;28;20508;-69
2023/02/15 07:54:15;;;;;;;6.37;5.47;;;;;;;;;;4971121;28;20285;-66
2023/02/15 07:56:40;;;;;;;7.63;5.35;;;;;;;;;;4985273;28;20321;-64
2023/02/15 07:59:07;;;;;;;5.70;4.88;;;;;;;;;;4978059;28;20102;-65
2023/02/15 08:01:35;;;;;;;6.20;5.00;;;;;;;;;;4987390;28;20489;-64
2023/02/15 08:04:00;;;;;;;6.07;4.72;;;;;;;;;;4976396;28;20116;-66
2023/02/15 08:06:27;;;;;;;6.33;5.17;;;;;;;;;;4964504;28;20043;-65
2023/02/15 08:08:53;;;;;;;5.53;4.95;;;;;;;;;;4961941;28;20278;-65
2023/02/15 08:11:37;;;;;;;5.82;4.63;;;;;;;;;;4965279;28;20518;-64
2023/02/15 08:14:08;;;;;;;6.00;4.80;;;;;;;;;;4984024;28;20070;-66
2023/02/15 08:16:40;;;;;;;6.47;4.75;;;;;;;;;;4985057;28;20145;-64
2023/02/15 08:19:06;;;;;;;6.65;4.93;;;;;;;;;;4985195;28;20049;-62
2023/02/15 08:21:31;;;;;;;6.43;5.20;;;;;;;;;;4981295;28;20023;-63
2023/02/15 08:23:57;;;;;;;7.45;5.13;;;;;;;;;;4980487;28;20065;-66
2023/02/15 08:26:22;;;;;;;6.03;4.72;;;;;;;;;;4948085;28;20068;-62
2023/02/15 08:28:48;;;;;;;6.50;4.72;;;;;;;;;;4946630;28;20558;-60
2023/02/15 08:31:14;;;;;;;5.75;4.90;;;;;;;;;;4986551;28;20457;-62
2023/02/15 08:33:39;;;;;;;7.00;4.90;;;;;;;;;;4965721;28;20286;-66
2023/02/15 08:36:05;;;;;;;6.60;4.95;;;;;;;;;;4970469;28;20030;-63
2023/02/15 08:38:31;;;;;;;6.15;4.78;;;;;;;;;;4969153;28;20061;-64
2023/02/15 08:40:57;;;;;;;5.88;4.47;;;;;;;;;;4952662;28;20042;-65
2023/02/15 08:43:22;;;;;;;6.43;4.73;;;;;;;;;;4976579;28;20382;-67
2023/02/15 08:45:47;;;;;;;5.57;4.67;;;;;;;;;;4987971;28;20277;-67
2023/02/15 08:48:12;;;;;;;5.88;5.05;;;;;;;;;;4947782;28;20372;-61
2023/02/15 08:50:38;;;;;;;5.37;4.70;;;;;;;;;;4978512;28;20034;-62
2023/02/15 08:53:03;;;;;;;5.60;4.60;;;;;;;;;;4984679;28;20301;-69
2023/02/15 08:55:28;;;;;;;6.60;4.60;;;;;;;;;;4971056;28;20301;-64
2023/02/15 08:57:55;;;;;;;7.20;4.77;;;;;;;;;;4985101;28;20046;-64
2023/02/15 09:00:22;;;;;;;5.63;4.40;;;;;;;;;;4980958;28;20336;-67
2023/02/15 09:02:47;;;;;;;6.00;4.70;;;;;;;;;;4956339;28;20530;-67
2023/02/15 09:05:13;;;;;;;7.00;4.93;;;;;;;;;;4992331;28;20038;-70
2023/02/15 09:07:38;;;;;;;5.88;4.65;;;;;;;;;;4984650;28;20352;-67
2023/02/15 09:10:04;;;;;;;5.10;4.60;;;;;;;;;;4966332;28;20067;-61
2023/02/15 09:12:29;;;;;;;5.30;4.70;;;;;;;;;;4955930;28;20312;-69
2023/02/15 09:14:54;;;;;;;6.87;5.00;;;;;;;;;;4988230;28;20052;-69
2023/02/15 09:17:19;;;;;;;6.10;4.50;;;;;;;;;;4988910;28;20289;-69
2023/02/15 09:19:45;;;;;;;5.30;4.60;;;;;;;;;;4962338;28;20298;-67
2023/02/15 09:22:10;;;;;;;5.73;4.40;;;;;;;;;;4986281;28;20940;-66
2023/02/15 09:24:35;;;;;;;6.60;4.60;;;;;;;;;;4972025;28;20384;-70
2023/02/15 09:27:00;;;;;;;4.82;4.32;;;;;;;;;;4985921;28;20041;-61
2023/02/15 09:29:26;;;;;;;5.63;4.87;;;;;;;;;;4972212;28;20491;-68
2023/02/15 09:31:52;;;;;;;6.03;4.67;;;;;;;;;;4987780;28;20454;-60
2023/02/15 09:34:18;;;;;;;5.22;4.40;;;;;;;;;;4970513;28;20301;-68
2023/02/15 09:36:43;;;;;;;6.15;4.32;;;;;;;;;;4975871;28;20046;-70
2023/02/15 09:39:18;;;;;;;5.67;4.33;;;;;;;;;;4973256;28;20043;-70
2023/02/15 09:42:22;;;;;;;5.00;4.50;;;;;;;;;;4957851;28;20351;-63
2023/02/15 09:45:03;;;;;;;5.00;4.32;;;;;;;;;;4910895;29;20116;-60
2023/02/15 09:47:43;;;;;;;5.07;4.07;;;;;;;;;;4909269;29;20067;-64
2023/02/15 09:50:12;;;;;;;5.20;4.53;;;;;;;;;;4962793;28;20093;-64
2023/02/15 09:52:40;;;;;;;11.80;4.70;;;;;;;;;;4984966;28;20046;-65
2023/02/15 09:55:18;;;;;;;5.38;4.45;;;;;;;;;;4988121;28;20034;-66
2023/02/15 09:58:02;;;;;;;5.53;4.53;;;;;;;;;;4988343;28;20038;-68
2023/02/15 10:00:42;;;;;;;5.18;4.35;;;;;;;;;;4987466;28;20414;-65
2023/02/15 10:03:14;;;;;;;6.38;4.38;;;;;;;;;;4983680;28;20039;-66
2023/02/15 10:06:01;;;;;;;6.00;4.47;;;;;;;;;;4983900;28;20045;-65
2023/02/15 10:08:48;;;;;;;4.45;3.90;;;;;;;;;;4987250;28;20084;-63
2023/02/15 10:14:07;;;;;;;4.80;4.28;;;;;;;;;;4985878;28;20125;-63
2023/02/15 10:16:36;;;;;;;4.90;4.35;;;;;;;;;;4986737;28;20066;-65
2023/02/15 10:19:07;;;;;;;6.00;4.97;;;;;;;;;;4992348;28;20072;-63
2023/02/15 10:21:40;;;;;;;7.90;5.93;;;;;;;;;;4992339;28;20046;-68
2023/02/15 10:24:05;;;;;;;6.50;5.38;;;;;;;;;;4943980;28;20073;-66
2023/02/15 10:26:36;;;;;;;7.28;5.53;;;;;;;;;;4987127;28;20105;-66
2023/02/15 10:29:07;;;;;;;8.02;5.40;;;;;;;;;;4977683;28;20050;-60
2023/02/15 10:31:35;;;;;;;6.28;4.80;;;;;;;;;;4969541;28;20094;-65
2023/02/15 10:34:01;;;;;;;6.25;4.95;;;;;;;;;;4986479;28;20136;-64
2023/02/15 10:36:39;;;;;;;7.40;5.10;;;;;;;;;;4978531;28;20192;-63
2023/02/15 10:39:04;;;;;;;7.30;4.90;;;;;;;;;;4988452;28;20069;-65
2023/02/15 10:41:29;;;;;;;5.73;4.67;;;;;;;;;;4986411;28;20467;-65
2023/02/15 10:44:00;;;;;;;6.60;5.13;;;;;;;;;;4987859;28;20289;-65
2023/02/15 10:46:45;;;;;;;5.70;5.15;;;;;;;;;;4982978;28;20046;-64
2023/02/15 10:49:18;;;;;;;6.95;5.47;;;;;;;;;;4975245;28;20829;-61
2023/02/15 10:52:02;;;;;;;6.20;5.13;;;;;;;;;;4967007;28;20054;-64
2023/02/15 10:54:40;;;;;;;7.72;5.20;;;;;;;;;;4969859;28;20526;-63
2023/02/15 10:57:14;;;;;;;7.38;5.10;;;;;;;;;;4970617;28;20047;-60
2023/02/15 10:59:39;;;;;;;6.40;4.95;;;;;;;;;;4982383;28;20118;-61
2023/02/15 11:02:14;;;;;;;7.80;5.30;;;;;;;;;;4989022;28;20046;-65
2023/02/15 11:04:41;;;;;;;6.90;5.55;;;;;;;;;;4985634;28;20120;-60
2023/02/15 11:07:09;;;;;;;5.95;5.03;;;;;;;;;;4986970;28;20075;-61
2023/02/15 11:09:37;;;;;;;6.38;4.90;;;;;;;;;;4986082;28;20042;-65
2023/02/15 11:12:02;;;;;;;7.55;5.25;;;;;;;;;;4966252;28;20042;-67
2023/02/15 11:14:43;;;;;;;5.88;4.82;;;;;;;;;;4954687;28;20511;-61
2023/02/15 11:17:10;;;;;;;6.57;4.88;;;;;;;;;;4988420;28;20600;-69
2023/02/15 11:19:35;;;;;;;5.85;4.78;;;;;;;;;;4986358;28;20513;-69
2023/02/15 11:22:02;;;;;;;7.45;5.03;;;;;;;;;;4971001;28;20046;-61
2023/02/15 11:24:28;;;;;;;6.40;4.97;;;;;;;;;;4971540;28;20030;-65
2023/02/15 11:26:57;;;;;;;6.03;4.80;;;;;;;;;;4985260;28;20061;-63
2023/02/15 11:29:32;;;;;;;6.38;5.38;;;;;;;;;;4952205;28;20141;-61
2023/02/15 11:31:58;;;;;;;5.78;4.82;;;;;;;;;;4948206;28;20419;-65
2023/02/15 11:34:36;;;;;;;5.68;4.70;;;;;;;;;;4987763;28;20290;-66
2023/02/15 11:37:05;;;;;;;6.78;5.03;;;;;;;;;;4985831;28;20077;-64
2023/02/15 11:39:31;;;;;;;5.70;4.90;;;;;;;;;;4970347;28;20033;-66
2023/02/15 11:41:57;;;;;;;6.18;5.28;;;;;;;;;;4983531;28;20324;-64
2023/02/15 11:44:32;;;;;;;6.15;4.68;;;;;;;;;;4970598;28;20278;-64
2023/02/15 11:46:57;;;;;;;15.98;9.73;;;;;;;;;;4985357;28;20046;-65
2023/02/15 11:49:25;;;;;;;11.50;6.95;;;;;;;;;;4988524;28;20049;-60
2023/02/15 11:51:51;;;;;;;9.75;8.25;;;;;;;;;;4961580;28;20528;-59
2023/02/15 11:54:18;;;;;;;8.55;7.00;;;;;;;;;;4984892;28;20388;-64
2023/02/15 11:56:43;;;;;;;8.05;6.85;;;;;;;;;;4963968;28;20054;-64
2023/02/15 11:59:10;;;;;;;7.73;6.93;;;;;;;;;;4953752;28;20039;-63
2023/02/15 12:01:36;;;;;;;7.93;6.47;;;;;;;;;;4979540;28;20283;-64
2023/02/15 12:04:15;;;;;;;7.03;6.32;;;;;;;;;;4966908;28;20035;-63
2023/02/15 12:06:49;;;;;;;7.95;6.90;;;;;;;;;;4961098;28;20125;-62
2023/02/15 12:09:29;;;;;;;7.05;6.28;;;;;;;;;;4971733;28;20078;-65
2023/02/15 12:11:54;;;;;;;7.22;6.45;;;;;;;;;;4985469;28;20145;-65
2023/02/15 12:14:20;;;;;;;6.80;6.10;;;;;;;;;;4969384;28;20557;-60
2023/02/15 12:16:46;;;;;;;7.03;6.25;;;;;;;;;;4986386;28;20281;-64
2023/02/15 12:19:28;;;;;;;7.95;6.70;;;;;;;;;;4970511;28;20035;-63
2023/02/15 12:21:53;;;;;;;7.78;6.53;;;;;;;;;;4969293;28;20132;-66
2023/02/15 12:24:21;;;;;;;6.95;6.25;;;;;;;;;;4987010;28;20426;-64
2023/02/15 12:26:55;;;;;;;6.88;6.18;;;;;;;;;;4970080;28;20018;-64
2023/02/15 12:29:21;;;;;;;6.90;6.13;;;;;;;;;;4972962;28;20030;-63
2023/02/15 12:31:47;;;;;;;7.32;6.22;;;;;;;;;;4991362;28;20073;-63
2023/02/15 12:34:13;;;;;;;7.22;6.53;;;;;;;;;;4990670;28;20049;-61
2023/02/15 12:36:44;;;;;;;7.43;6.28;;;;;;;;;;4967439;28;20505;-61
2023/02/15 12:39:12;;;;;;;6.93;6.22;;;;;;;;;;4947903;28;20039;-66
2023/02/15 12:41:39;;;;;;;6.72;5.93;;;;;;;;;;4987249;28;20502;-63
2023/02/15 12:44:18;;;;;;;7.50;6.40;;;;;;;;;;4966379;28;20052;-62
2023/02/15 12:46:55;;;;;;;7.03;6.33;;;;;;;;;;4976563;28;21465;-61
2023/02/15 12:49:21;;;;;;;7.30;6.13;;;;;;;;;;4957715;28;20044;-60
2023/02/15 12:51:46;;;;;;;6.83;6.13;;;;;;;;;;4953902;28;20049;-62
2023/02/15 12:54:23;;;;;;;8.50;7.00;;;;;;;;;;4983461;28;20626;-65
2023/02/15 12:56:48;;;;;;;6.93;5.93;;;;;;;;;;4957471;28;20289;-64
2023/02/15 12:59:15;;;;;;;6.80;6.10;;;;;;;;;;4990228;28;20038;-68
2023/02/15 13:01:41;;;;;;;7.35;6.10;;;;;;;;;;4989204;28;20126;-64
2023/02/15 13:04:14;;;;;;;13.18;11.63;;;;;;;;;;4970506;28;20066;-69
2023/02/15 13:06:44;;;;;;;11.05;9.50;;;;;;;;;;4980020;28;20117;-62
2023/02/15 13:09:13;;;;;;;7.93;7.13;;;;;;;;;;4961337;28;20095;-64
2023/02/15 13:11:38;;;;;;;7.13;6.43;;;;;;;;;;4986727;28;20054;-66
2023/02/15 13:14:05;;;;;;;7.10;6.40;;;;;;;;;;4991310;28;20046;-62
2023/02/15 13:16:33;;;;;;;7.25;6.55;;;;;;;;;;4984331;28;20300;-63
2023/02/15 13:19:02;;;;;;;9.52;6.60;;;;;;;;;;4967719;28;20070;-68
2023/02/15 13:21:29;;;;;;;7.40;6.70;;;;;;;;;;4956042;28;20038;-66
2023/02/15 13:24:00;;;;;;;6.75;6.05;;;;;;;;;;4943340;28;20035;-63
2023/02/15 13:26:26;;;;;;;7.85;6.50;;;;;;;;;;4951710;28;20504;-64
2023/02/15 13:29:11;;;;;;;6.93;6.10;;;;;;;;;;4963245;28;20049;-62
2023/02/15 13:31:36;;;;;;;7.70;6.28;;;;;;;;;;4978122;28;20477;-64
2023/02/15 13:34:21;;;;;;;6.47;5.87;;;;;;;;;;4972813;28;20719;-62
2023/02/15 13:36:51;;;;;;;7.15;6.43;;;;;;;;;;4979505;28;20286;-61
2023/02/15 13:39:20;;;;;;;7.03;6.32;;;;;;;;;;4956817;28;20062;-61
2023/02/15 13:41:48;;;;;;;7.03;6.32;;;;;;;;;;4972863;28;20033;-62
2023/02/15 13:44:28;;;;;;;9.88;6.40;;;;;;;;;;4990923;28;20058;-65
2023/02/15 13:47:05;;;;;;;7.40;6.63;;;;;;;;;;4972852;28;20112;-62
2023/02/15 13:49:49;;;;;;;7.47;6.30;;;;;;;;;;4988138;28;20130;-59
2023/02/15 13:52:24;;;;;;;6.90;6.20;;;;;;;;;;4991915;28;20050;-65
2023/02/15 13:54:53;;;;;;;6.93;6.22;;;;;;;;;;4970777;28;20125;-63
2023/02/15 13:57:30;;;;;;;7.03;6.03;;;;;;;;;;4971267;28;20085;-65
2023/02/15 13:59:56;;;;;;;8.23;6.38;;;;;;;;;;4983012;28;20131;-62
2023/02/15 14:02:40;;;;;;;7.13;6.43;;;;;;;;;;4986847;28;20586;-58
2023/02/15 14:05:20;;;;;;;7.70;6.88;;;;;;;;;;4988508;28;20088;-62
2023/02/15 14:07:52;;;;;;;7.93;6.80;;;;;;;;;;4987943;28;20042;-64
2023/02/15 14:10:21;;;;;;;6.70;6.03;;;;;;;;;;4987603;28;20065;-60
2023/02/15 14:13:02;;;;;;;6.45;5.72;;;;;;;;;;4965501;28;20057;-63
2023/02/15 14:15:36;;;;;;;7.10;6.40;;;;;;;;;;4989720;28;20053;-69
2023/02/15 14:18:12;;;;;;;6.75;6.07;;;;;;;;;;4989969;28;20486;-62
2023/02/15 14:20:41;;;;;;;7.07;6.35;;;;;;;;;;4987835;28;20511;-64
2023/02/15 14:23:15;;;;;;;6.95;6.25;;;;;;;;;;4989163;28;20043;-60
2023/02/15 14:25:43;;;;;;;6.82;6.13;;;;;;;;;;4975535;28;20096;-65
2023/02/15 14:28:10;;;;;;;7.13;6.45;;;;;;;;;;4972410;28;20138;-62
2023/02/15 14:30:39;;;;;;;7.35;6.60;;;;;;;;;;4987959;28;20117;-64
2023/02/15 14:33:10;;;;;;;6.72;6.03;;;;;;;;;;4970118;28;20070;-65
2023/02/15 14:35:36;;;;;;;7.53;6.72;;;;;;;;;;4970100;28;20042;-63
2023/02/15 14:38:02;;;;;;;6.85;6.10;;;;;;;;;;4986421;28;20056;-65
2023/02/15 14:41:01;;;;;;;6.97;5.97;;;;;;;;;;4988072;28;20113;-62
2023/02/15 14:43:38;;;;;;;7.65;6.45;;;;;;;;;;4987916;28;20042;-65
2023/02/15 14:46:22;;;;;;;7.50;6.30;;;;;;;;;;4985746;28;20038;-63
2023/02/15 14:48:48;;;;;;;9.52;6.32;;;;;;;;;;4985403;28;20092;-65
2023/02/15 14:51:32;;;;;;;6.90;5.82;;;;;;;;;;4969842;28;20030;-67
2023/02/15 14:53:57;;;;;;;6.97;6.28;;;;;;;;;;4987889;28;20042;-61
2023/02/15 14:56:23;;;;;;;7.07;6.30;;;;;;;;;;4986213;28;20080;-60
2023/02/15 14:58:55;;;;;;;6.75;5.95;;;;;;;;;;4987581;28;20432;-63
2023/02/15 15:01:29;;;;;;;7.53;6.40;;;;;;;;;;4987729;28;20011;-64
2023/02/15 15:03:58;;;;;;;6.93;6.22;;;;;;;;;;4984800;28;20579;-63
2023/02/15 15:06:27;;;;;;;7.20;6.50;;;;;;;;;;4982787;28;20215;-66
2023/02/15 15:08:55;;;;;;;7.28;6.45;;;;;;;;;;4969837;28;20471;-65